Time;durP1;ratioP1;P1;durP2;ratioP2;P2;SDS_P1;SDS_P2;PMS_P1;PMS_P2;Temp;Humidity;BMP_temperature;BMP_pressure;BME280_temperature;BME280_humidity;BME280_pressure;Samples;Min_cycle;Max_cycle;Signal;HPM_P1;HPM_P2
2021/11/22 00:00:08;;;;;;;11.67;7.60;;;;;;;;;;5073655;28;20194;-82
2021/11/22 00:02:54;;;;;;;9.83;6.90;;;;;;;;;;5073350;28;20210;-83
2021/11/22 00:05:39;;;;;;;8.30;7.10;;;;;;;;;;5073042;28;20256;-83
2021/11/22 00:08:25;;;;;;;9.93;6.90;;;;;;;;;;5073827;28;20314;-82
2021/11/22 00:11:10;;;;;;;8.53;7.63;;;;;;;;;;5074004;28;20194;-82
2021/11/22 00:13:55;;;;;;;11.90;8.23;;;;;;;;;;5073093;28;20185;-82
2021/11/22 00:16:41;;;;;;;8.90;7.40;;;;;;;;;;5073754;28;20578;-83
2021/11/22 00:19:27;;;;;;;8.53;7.17;;;;;;;;;;5073671;28;20190;-82
2021/11/22 00:22:12;;;;;;;7.87;7.17;;;;;;;;;;5073394;28;20190;-83
2021/11/22 00:24:57;;;;;;;8.43;7.53;;;;;;;;;;5073696;28;20329;-83
2021/11/22 00:27:42;;;;;;;8.57;7.57;;;;;;;;;;5073634;28;20243;-82
2021/11/22 00:30:27;;;;;;;9.37;7.30;;;;;;;;;;5073638;28;20190;-82
2021/11/22 00:33:14;;;;;;;10.60;7.90;;;;;;;;;;5073015;28;20186;-83
2021/11/22 00:35:59;;;;;;;10.03;7.47;;;;;;;;;;5073307;28;20544;-82
2021/11/22 00:38:44;;;;;;;8.53;7.70;;;;;;;;;;5073210;28;20280;-83
2021/11/22 00:41:30;;;;;;;8.47;7.53;;;;;;;;;;5072697;28;20256;-84
2021/11/22 00:44:15;;;;;;;8.50;7.70;;;;;;;;;;5073005;28;20288;-83
2021/11/22 00:47:01;;;;;;;7.97;7.17;;;;;;;;;;5072438;28;20248;-83
2021/11/22 00:49:47;;;;;;;11.80;7.43;;;;;;;;;;5073109;28;20754;-83
2021/11/22 00:52:33;;;;;;;9.13;7.70;;;;;;;;;;5072674;28;20189;-83
2021/11/22 00:55:18;;;;;;;9.03;7.50;;;;;;;;;;5073169;28;20210;-83
2021/11/22 00:58:03;;;;;;;12.03;8.53;;;;;;;;;;5072541;28;20209;-82
2021/11/22 01:00:49;;;;;;;9.97;8.80;;;;;;;;;;5072493;28;20193;-83
2021/11/22 01:03:34;;;;;;;12.70;8.80;;;;;;;;;;5073056;28;20213;-82
2021/11/22 01:06:20;;;;;;;12.40;8.67;;;;;;;;;;5072710;28;20257;-83
2021/11/22 01:09:05;;;;;;;12.33;8.20;;;;;;;;;;5072531;28;20716;-82
2021/11/22 01:11:51;;;;;;;12.33;8.27;;;;;;;;;;5072023;28;20189;-83
2021/11/22 01:14:36;;;;;;;14.30;8.93;;;;;;;;;;5072644;28;20185;-83
2021/11/22 01:17:21;;;;;;;9.60;8.60;;;;;;;;;;5071841;28;20178;-82
2021/11/22 01:20:07;;;;;;;15.07;8.43;;;;;;;;;;5072508;28;20189;-82
2021/11/22 01:22:53;;;;;;;10.73;8.80;;;;;;;;;;5072142;28;20304;-82
2021/11/22 01:25:39;;;;;;;11.43;8.63;;;;;;;;;;5072110;28;20787;-82
2021/11/22 01:28:24;;;;;;;10.43;9.33;;;;;;;;;;5071877;28;20211;-83
2021/11/22 01:31:09;;;;;;;19.77;12.20;;;;;;;;;;5072113;28;20324;-83
2021/11/22 01:33:54;;;;;;;13.60;10.30;;;;;;;;;;5072421;28;20597;-83
2021/11/22 01:36:39;;;;;;;13.10;9.53;;;;;;;;;;5071682;28;20190;-82
2021/11/22 01:39:26;;;;;;;12.83;9.20;;;;;;;;;;5071921;28;20317;-82
2021/11/22 01:42:11;;;;;;;17.00;11.23;;;;;;;;;;5071773;28;20186;-83
2021/11/22 01:44:56;;;;;;;15.77;12.00;;;;;;;;;;5071801;28;20332;-82
2021/11/22 01:47:41;;;;;;;17.80;11.57;;;;;;;;;;5071706;28;20194;-82
2021/11/22 01:50:27;;;;;;;17.80;11.07;;;;;;;;;;5071554;28;20228;-83
2021/11/22 01:53:12;;;;;;;13.10;10.60;;;;;;;;;;5071487;28;20548;-82
2021/11/22 01:55:59;;;;;;;14.97;10.07;;;;;;;;;;5071603;28;20320;-83
2021/11/22 01:58:44;;;;;;;13.50;10.47;;;;;;;;;;5071629;28;20193;-83
2021/11/22 02:01:29;;;;;;;14.93;11.27;;;;;;;;;;5071378;28;20692;-83
2021/11/22 02:04:14;;;;;;;16.83;11.30;;;;;;;;;;5071732;28;20683;-82
2021/11/22 02:06:59;;;;;;;14.23;10.30;;;;;;;;;;5071383;28;20182;-82
2021/11/22 02:09:44;;;;;;;12.80;10.20;;;;;;;;;;5071381;28;20260;-83
2021/11/22 02:12:32;;;;;;;16.40;11.63;;;;;;;;;;5071010;28;20267;-83
2021/11/22 02:15:18;;;;;;;14.83;11.23;;;;;;;;;;5071777;28;20185;-83
2021/11/22 02:18:03;;;;;;;19.00;10.37;;;;;;;;;;5071040;28;20252;-82
2021/11/22 02:20:49;;;;;;;12.43;10.00;;;;;;;;;;5071291;28;20259;-82
2021/11/22 02:23:35;;;;;;;12.87;10.20;;;;;;;;;;5070877;28;20221;-82
2021/11/22 02:26:20;;;;;;;14.83;10.03;;;;;;;;;;5070863;28;20316;-82
2021/11/22 02:29:05;;;;;;;11.23;9.77;;;;;;;;;;5071227;28;20375;-83
2021/11/22 02:31:50;;;;;;;12.93;8.87;;;;;;;;;;5070757;28;20189;-82
2021/11/22 02:34:36;;;;;;;14.20;9.23;;;;;;;;;;5071357;28;20255;-82
2021/11/22 02:37:22;;;;;;;14.97;9.70;;;;;;;;;;5070687;28;20186;-83
2021/11/22 02:40:08;;;;;;;11.23;9.83;;;;;;;;;;5071114;28;20194;-82
2021/11/22 02:42:53;;;;;;;12.33;9.87;;;;;;;;;;5070692;28;20581;-83
2021/11/22 02:45:39;;;;;;;11.07;9.00;;;;;;;;;;5070977;28;20225;-83
2021/11/22 02:48:25;;;;;;;11.93;9.00;;;;;;;;;;5071392;28;20189;-82
2021/11/22 02:51:10;;;;;;;14.60;9.43;;;;;;;;;;5070923;28;20679;-83
2021/11/22 02:54:00;;;;;;;13.30;9.20;;;;;;;;;;5071007;28;20645;-82
2021/11/22 02:56:46;;;;;;;12.73;9.60;;;;;;;;;;5070623;28;20194;-83
2021/11/22 02:59:31;;;;;;;14.10;8.93;;;;;;;;;;5071107;28;20240;-81
2021/11/22 03:02:17;;;;;;;13.53;9.30;;;;;;;;;;5071189;28;20292;-82
2021/11/22 03:05:01;;;;;;;14.33;9.47;;;;;;;;;;5070896;28;20217;-83
2021/11/22 03:07:47;;;;;;;13.53;9.00;;;;;;;;;;5070631;28;20255;-82
2021/11/22 03:10:33;;;;;;;15.33;9.47;;;;;;;;;;5070881;28;20245;-82
2021/11/22 03:13:18;;;;;;;14.00;9.83;;;;;;;;;;5070727;28;20186;-82
2021/11/22 03:16:03;;;;;;;12.33;9.07;;;;;;;;;;5070865;28;20190;-82
2021/11/22 03:18:49;;;;;;;13.73;9.90;;;;;;;;;;5070766;28;20312;-82
2021/11/22 03:21:34;;;;;;;14.00;9.60;;;;;;;;;;5071041;28;20662;-82
2021/11/22 03:24:19;;;;;;;17.03;9.67;;;;;;;;;;5071159;28;20567;-82
2021/11/22 03:27:06;;;;;;;16.20;10.50;;;;;;;;;;5070096;28;20245;-82
2021/11/22 03:29:52;;;;;;;13.27;9.80;;;;;;;;;;5070767;28;20553;-82
2021/11/22 03:32:37;;;;;;;14.63;9.57;;;;;;;;;;5070494;28;20190;-82
2021/11/22 03:35:22;;;;;;;13.77;9.87;;;;;;;;;;5070673;28;20233;-82
2021/11/22 03:38:09;;;;;;;15.37;10.03;;;;;;;;;;5070530;28;20194;-82
2021/11/22 03:40:56;;;;;;;14.73;9.80;;;;;;;;;;5070289;28;20189;-82
2021/11/22 03:43:51;;;;;;;16.77;10.97;;;;;;;;;;5070261;28;20190;-82
2021/11/22 03:46:36;;;;;;;14.87;9.60;;;;;;;;;;5070398;28;20209;-82
2021/11/22 03:49:22;;;;;;;15.03;10.33;;;;;;;;;;5073184;28;20200;-82
2021/11/22 03:52:09;;;;;;;17.10;10.43;;;;;;;;;;5073946;28;20777;-81
2021/11/22 03:54:54;;;;;;;16.53;10.03;;;;;;;;;;5074012;28;20185;-82
2021/11/22 03:57:39;;;;;;;16.67;10.87;;;;;;;;;;5073740;28;20182;-82
2021/11/22 04:00:25;;;;;;;16.33;10.93;;;;;;;;;;5074094;28;20190;-82
2021/11/22 04:03:11;;;;;;;14.20;10.20;;;;;;;;;;5073754;28;20197;-82
2021/11/22 04:05:56;;;;;;;15.70;10.90;;;;;;;;;;5073467;28;20212;-83
2021/11/22 04:08:41;;;;;;;15.77;10.47;;;;;;;;;;5073848;28;20201;-82
2021/11/22 04:11:27;;;;;;;15.10;11.10;;;;;;;;;;5073865;28;20193;-82
2021/11/22 04:14:12;;;;;;;16.97;11.73;;;;;;;;;;5073693;28;20189;-81
2021/11/22 04:16:58;;;;;;;20.13;11.80;;;;;;;;;;5073527;28;20194;-82
2021/11/22 04:19:43;;;;;;;18.33;12.00;;;;;;;;;;5073671;28;20309;-82
2021/11/22 04:22:29;;;;;;;15.50;10.97;;;;;;;;;;5073386;28;20205;-82
2021/11/22 04:25:14;;;;;;;21.77;11.20;;;;;;;;;;5072763;28;20256;-82
2021/11/22 04:27:59;;;;;;;14.83;10.37;;;;;;;;;;5073488;28;20189;-82
2021/11/22 04:30:44;;;;;;;14.77;10.13;;;;;;;;;;5072994;28;20645;-83
2021/11/22 04:33:30;;;;;;;16.30;10.37;;;;;;;;;;5073338;28;20695;-83
2021/11/22 04:36:15;;;;;;;20.57;10.27;;;;;;;;;;5073248;28;20198;-84
2021/11/22 04:39:00;;;;;;;19.50;11.97;;;;;;;;;;5073020;28;20205;-83
2021/11/22 04:41:47;;;;;;;13.73;9.93;;;;;;;;;;5073143;28;20186;-82
2021/11/22 04:44:32;;;;;;;19.33;10.73;;;;;;;;;;5072727;28;20295;-82
2021/11/22 04:47:20;;;;;;;18.60;10.77;;;;;;;;;;5072761;28;20194;-81
2021/11/22 04:50:07;;;;;;;17.17;10.10;;;;;;;;;;5072510;28;20221;-83
2021/11/22 04:52:54;;;;;;;15.17;9.53;;;;;;;;;;5072840;28;20193;-82
2021/11/22 04:55:40;;;;;;;12.97;9.50;;;;;;;;;;5072208;28;20198;-83
2021/11/22 04:58:25;;;;;;;14.37;9.67;;;;;;;;;;5072463;28;20185;-82
2021/11/22 05:01:10;;;;;;;17.63;9.00;;;;;;;;;;5072440;28;20194;-82
2021/11/22 05:03:55;;;;;;;13.90;8.87;;;;;;;;;;5072603;28;20229;-83
2021/11/22 05:06:41;;;;;;;15.63;8.73;;;;;;;;;;5071436;28;20224;-83
2021/11/22 05:09:26;;;;;;;14.13;8.70;;;;;;;;;;5072283;28;20190;-83
2021/11/22 05:12:11;;;;;;;10.97;7.70;;;;;;;;;;5071981;28;20186;-84
2021/11/22 05:14:56;;;;;;;12.57;8.07;;;;;;;;;;5072058;28;20189;-84
2021/11/22 05:17:41;;;;;;;15.13;7.97;;;;;;;;;;5072440;28;20267;-83
2021/11/22 05:20:28;;;;;;;11.87;7.47;;;;;;;;;;5071941;28;20186;-83
2021/11/22 05:23:14;;;;;;;11.57;7.00;;;;;;;;;;5072487;28;20205;-83
2021/11/22 05:26:00;;;;;;;14.83;7.23;;;;;;;;;;5071604;28;20245;-85
2021/11/22 05:28:45;;;;;;;13.37;6.53;;;;;;;;;;5072241;28;20193;-82
2021/11/22 05:31:31;;;;;;;12.50;7.37;;;;;;;;;;5072220;28;20190;-84
2021/11/22 05:34:18;;;;;;;9.40;6.40;;;;;;;;;;5072325;28;20654;-84
2021/11/22 05:37:03;;;;;;;10.20;6.20;;;;;;;;;;5072237;28;20186;-83
2021/11/22 05:39:49;;;;;;;8.73;6.37;;;;;;;;;;5071632;28;20193;-83
2021/11/22 05:42:34;;;;;;;9.33;6.30;;;;;;;;;;5072170;28;20584;-81
2021/11/22 05:45:20;;;;;;;15.87;9.17;;;;;;;;;;5071694;28;20688;-82
2021/11/22 05:48:07;;;;;;;16.40;10.40;;;;;;;;;;5071865;28;20276;-87
2021/11/22 05:50:54;;;;;;;10.67;6.03;;;;;;;;;;5071516;28;20692;-85
2021/11/22 05:53:41;;;;;;;8.90;5.33;;;;;;;;;;5072173;28;20220;-88
2021/11/22 05:56:28;;;;;;;10.97;5.93;;;;;;;;;;5071547;28;20205;-86
2021/11/22 05:59:13;;;;;;;8.03;5.57;;;;;;;;;;5071730;28;20186;-85
2021/11/22 06:01:57;;;;;;;9.47;5.70;;;;;;;;;;5071158;28;20232;-85
2021/11/22 06:04:43;;;;;;;10.23;6.20;;;;;;;;;;5071609;28;20549;-84
2021/11/22 06:07:28;;;;;;;11.37;5.83;;;;;;;;;;5071735;28;20186;-85
2021/11/22 06:10:13;;;;;;;7.73;5.80;;;;;;;;;;5068774;28;20197;-84
2021/11/22 06:13:00;;;;;;;10.53;6.40;;;;;;;;;;5062446;28;20733;-84
2021/11/22 06:15:46;;;;;;;9.97;6.60;;;;;;;;;;5061889;28;20287;-84
2021/11/22 06:18:31;;;;;;;8.67;6.43;;;;;;;;;;5051279;28;20663;-84
2021/11/22 06:21:16;;;;;;;12.20;6.77;;;;;;;;;;5051142;28;20226;-82
2021/11/22 06:24:04;;;;;;;10.10;6.00;;;;;;;;;;5052058;28;20206;-83
2021/11/22 06:26:50;;;;;;;9.63;5.23;;;;;;;;;;5050547;28;20268;-83
2021/11/22 06:29:38;;;;;;;5.20;4.63;;;;;;;;;;5051304;28;20477;-83
2021/11/22 06:32:26;;;;;;;11.27;5.50;;;;;;;;;;5050568;28;20187;-82
2021/11/22 06:35:11;;;;;;;8.83;5.43;;;;;;;;;;5051044;28;20246;-83
2021/11/22 06:37:56;;;;;;;9.90;5.33;;;;;;;;;;5051411;28;20183;-84
2021/11/22 06:40:41;;;;;;;9.37;5.33;;;;;;;;;;5051281;28;20635;-84
2021/11/22 06:43:26;;;;;;;7.63;5.23;;;;;;;;;;5051511;28;20187;-83
2021/11/22 06:46:13;;;;;;;10.67;5.20;;;;;;;;;;5050932;28;20259;-84
2021/11/22 06:48:59;;;;;;;15.07;5.10;;;;;;;;;;5051374;28;20195;-85
2021/11/22 06:51:44;;;;;;;13.00;5.00;;;;;;;;;;5051116;28;20269;-84
2021/11/22 06:54:29;;;;;;;15.07;6.43;;;;;;;;;;5051015;28;20195;-84
2021/11/22 06:57:15;;;;;;;13.10;6.93;;;;;;;;;;5050746;28;20195;-81
2021/11/22 07:00:00;;;;;;;15.37;8.40;;;;;;;;;;5051092;28;20190;-83
2021/11/22 07:02:50;;;;;;;12.27;5.37;;;;;;;;;;5051116;28;20183;-83
2021/11/22 07:05:35;;;;;;;7.00;4.83;;;;;;;;;;5051349;28;20285;-83
2021/11/22 07:08:20;;;;;;;11.20;4.73;;;;;;;;;;5051293;28;20321;-83
2021/11/22 07:11:05;;;;;;;8.40;4.80;;;;;;;;;;5051067;28;20524;-84
2021/11/22 07:13:51;;;;;;;14.10;4.87;;;;;;;;;;5051133;28;20233;-83
2021/11/22 07:16:38;;;;;;;14.77;5.40;;;;;;;;;;5050618;28;20800;-83
2021/11/22 07:19:24;;;;;;;10.27;4.90;;;;;;;;;;5050873;28;20657;-83
2021/11/22 07:22:10;;;;;;;8.10;5.13;;;;;;;;;;5052219;28;20199;-83
2021/11/22 07:24:55;;;;;;;8.67;4.73;;;;;;;;;;5054957;28;20190;-83
2021/11/22 07:27:40;;;;;;;8.17;4.80;;;;;;;;;;5054822;28;20314;-82
2021/11/22 07:30:25;;;;;;;10.33;4.87;;;;;;;;;;5054784;28;20659;-82
2021/11/22 07:33:10;;;;;;;7.70;4.93;;;;;;;;;;5054869;28;20269;-82
2021/11/22 07:35:57;;;;;;;10.63;4.07;;;;;;;;;;5054446;28;20186;-83
2021/11/22 07:38:42;;;;;;;10.30;4.87;;;;;;;;;;5054677;28;20230;-82
2021/11/22 07:41:27;;;;;;;13.20;4.90;;;;;;;;;;5054311;28;20191;-83
2021/11/22 07:44:12;;;;;;;12.10;4.77;;;;;;;;;;5054381;28;20324;-82
2021/11/22 07:46:58;;;;;;;11.37;5.50;;;;;;;;;;5053290;28;20206;-82
2021/11/22 07:49:43;;;;;;;8.97;4.43;;;;;;;;;;5054484;28;20233;-82
2021/11/22 07:52:30;;;;;;;10.60;5.00;;;;;;;;;;5054362;28;20199;-82
2021/11/22 07:55:15;;;;;;;13.23;4.97;;;;;;;;;;5054654;28;20265;-83
2021/11/22 07:58:00;;;;;;;11.50;4.80;;;;;;;;;;5054172;28;20257;-82
2021/11/22 08:00:45;;;;;;;7.77;4.93;;;;;;;;;;5054053;28;20183;-82
2021/11/22 08:03:30;;;;;;;8.53;4.60;;;;;;;;;;5054327;28;20265;-82
2021/11/22 08:06:16;;;;;;;13.43;5.13;;;;;;;;;;5053929;28;20690;-82
2021/11/22 08:09:02;;;;;;;11.30;5.00;;;;;;;;;;5053986;28;20541;-82
2021/11/22 08:12:03;;;;;;;12.57;5.30;;;;;;;;;;5054053;28;20541;-83
2021/11/22 08:14:48;;;;;;;9.37;5.83;;;;;;;;;;5054206;28;20190;-83
2021/11/22 08:17:33;;;;;;;10.83;4.83;;;;;;;;;;5053902;28;20253;-83
2021/11/22 08:20:19;;;;;;;9.63;5.23;;;;;;;;;;5053752;28;20740;-83
2021/11/22 08:23:04;;;;;;;10.77;5.27;;;;;;;;;;5054026;28;20202;-83
2021/11/22 08:25:51;;;;;;;9.50;4.37;;;;;;;;;;5053526;28;21070;-82
2021/11/22 08:28:36;;;;;;;10.27;4.43;;;;;;;;;;5054106;28;20543;-82
2021/11/22 08:31:21;;;;;;;8.80;4.30;;;;;;;;;;5053221;28;20257;-82
2021/11/22 08:34:06;;;;;;;7.33;4.57;;;;;;;;;;5052884;28;20186;-83
2021/11/22 08:36:51;;;;;;;10.17;4.93;;;;;;;;;;5053214;28;20203;-83
2021/11/22 08:39:36;;;;;;;10.10;4.77;;;;;;;;;;5053577;28;20183;-82
2021/11/22 08:42:23;;;;;;;6.73;4.53;;;;;;;;;;5053595;28;20661;-82
2021/11/22 08:45:08;;;;;;;15.03;5.43;;;;;;;;;;5053572;28;20358;-82
2021/11/22 08:47:54;;;;;;;8.63;5.27;;;;;;;;;;5053771;28;20214;-83
2021/11/22 08:50:39;;;;;;;9.83;5.20;;;;;;;;;;5052995;28;20752;-83
2021/11/22 08:53:24;;;;;;;9.43;6.13;;;;;;;;;;5053591;28;20762;-82
2021/11/22 08:56:09;;;;;;;11.70;5.50;;;;;;;;;;5053625;28;20306;-83
2021/11/22 08:58:56;;;;;;;10.03;5.17;;;;;;;;;;5053443;28;20186;-82
2021/11/22 09:01:41;;;;;;;8.80;4.70;;;;;;;;;;5052914;28;20558;-82
2021/11/22 09:04:27;;;;;;;8.93;5.40;;;;;;;;;;5053179;28;20187;-82
2021/11/22 09:07:12;;;;;;;6.97;4.77;;;;;;;;;;5052814;28;20207;-83
2021/11/22 09:09:57;;;;;;;8.40;4.90;;;;;;;;;;5053189;28;20190;-82
2021/11/22 09:12:44;;;;;;;9.67;4.57;;;;;;;;;;5052760;28;20191;-83
2021/11/22 09:15:31;;;;;;;7.47;4.70;;;;;;;;;;5052383;28;20234;-83
2021/11/22 09:18:16;;;;;;;7.90;4.83;;;;;;;;;;5052925;28;20178;-82
2021/11/22 09:21:02;;;;;;;10.17;4.27;;;;;;;;;;5052694;28;20265;-83
2021/11/22 09:23:47;;;;;;;5.43;4.03;;;;;;;;;;5052990;28;20666;-82
2021/11/22 09:26:32;;;;;;;7.13;4.40;;;;;;;;;;5052318;28;20233;-83
2021/11/22 09:29:17;;;;;;;9.30;3.83;;;;;;;;;;5052728;28;20255;-82
2021/11/22 09:32:04;;;;;;;7.00;4.30;;;;;;;;;;5052345;28;20178;-82
2021/11/22 09:34:49;;;;;;;7.00;4.50;;;;;;;;;;5052501;28;20198;-83
2021/11/22 09:37:34;;;;;;;7.30;4.57;;;;;;;;;;5052591;28;20186;-82
2021/11/22 09:40:20;;;;;;;7.53;4.53;;;;;;;;;;5052576;28;20194;-82
2021/11/22 09:43:05;;;;;;;5.93;4.37;;;;;;;;;;5052281;28;20190;-82
2021/11/22 09:45:51;;;;;;;7.20;4.40;;;;;;;;;;5051031;28;20190;-82
2021/11/22 09:48:37;;;;;;;5.80;4.30;;;;;;;;;;5052320;28;20186;-83
2021/11/22 09:51:23;;;;;;;6.70;4.40;;;;;;;;;;5051860;28;20238;-83
2021/11/22 09:54:08;;;;;;;7.73;4.50;;;;;;;;;;5052400;28;20183;-82
2021/11/22 09:56:54;;;;;;;6.27;4.10;;;;;;;;;;5052155;28;20187;-82
2021/11/22 09:59:39;;;;;;;6.33;3.73;;;;;;;;;;5052519;28;20677;-83
2021/11/22 10:02:39;;;;;;;9.13;4.57;;;;;;;;;;5051978;28;20663;-83
2021/11/22 10:05:29;;;;;;;7.23;4.13;;;;;;;;;;5051969;28;20201;-83
2021/11/22 10:08:15;;;;;;;6.87;3.97;;;;;;;;;;5052105;28;20284;-84
2021/11/22 10:11:01;;;;;;;5.70;4.20;;;;;;;;;;5051963;28;20178;-83
2021/11/22 10:13:46;;;;;;;6.60;4.43;;;;;;;;;;5052156;28;20489;-82
2021/11/22 10:16:31;;;;;;;9.27;4.30;;;;;;;;;;5051659;28;20187;-82
2021/11/22 10:19:19;;;;;;;6.10;3.87;;;;;;;;;;5051667;28;20186;-83
2021/11/22 10:22:17;;;;;;;4.57;3.90;;;;;;;;;;5051371;28;20182;-84
2021/11/22 10:25:16;;;;;;;6.40;3.90;;;;;;;;;;5052016;28;20191;-84
2021/11/22 10:28:06;;;;;;;4.57;3.70;;;;;;;;;;5051448;28;20206;-84
2021/11/22 10:30:52;;;;;;;7.77;3.70;;;;;;;;;;5051464;28;20189;-83
2021/11/22 10:33:39;;;;;;;4.93;3.70;;;;;;;;;;5051501;28;20666;-84
2021/11/22 10:36:24;;;;;;;7.07;3.83;;;;;;;;;;5051745;28;20658;-84
2021/11/22 10:39:11;;;;;;;6.07;3.77;;;;;;;;;;5051839;28;20302;-86
2021/11/22 10:41:58;;;;;;;3.77;3.20;;;;;;;;;;5051579;28;20272;-84
2021/11/22 10:44:43;;;;;;;4.67;3.47;;;;;;;;;;5051552;28;20182;-84
2021/11/22 10:47:28;;;;;;;4.20;3.00;;;;;;;;;;5051756;28;20211;-84
2021/11/22 10:50:24;;;;;;;3.50;2.63;;;;;;;;;;5051619;28;20226;-85
2021/11/22 10:53:09;;;;;;;2.77;2.50;;;;;;;;;;5051425;28;20191;-85
2021/11/22 10:55:55;;;;;;;4.53;2.80;;;;;;;;;;5051456;28;20186;-84
2021/11/22 10:58:46;;;;;;;4.53;2.70;;;;;;;;;;5055308;28;20211;-85
2021/11/22 11:01:33;;;;;;;3.93;2.20;;;;;;;;;;5055754;28;20546;-85
2021/11/22 11:04:20;;;;;;;2.27;2.10;;;;;;;;;;5055400;28;20241;-84
2021/11/22 11:07:06;;;;;;;3.43;2.23;;;;;;;;;;5055656;28;20206;-85
2021/11/22 11:09:53;;;;;;;2.30;2.10;;;;;;;;;;5055563;28;20226;-85
2021/11/22 11:12:44;;;;;;;4.70;2.37;;;;;;;;;;5055214;28;20185;-84
2021/11/22 11:15:29;;;;;;;3.60;2.30;;;;;;;;;;5054902;28;20191;-84
2021/11/22 11:18:23;;;;;;;3.83;2.20;;;;;;;;;;5055450;28;20555;-83
2021/11/22 11:21:08;;;;;;;2.92;2.20;;;;;;;;;;5054901;28;20769;-85
2021/11/22 11:23:53;;;;;;;4.77;2.20;;;;;;;;;;5055690;28;20206;-86
2021/11/22 11:26:38;;;;;;;2.50;2.30;;;;;;;;;;5054830;28;20592;-86
2021/11/22 11:29:24;;;;;;;2.63;2.10;;;;;;;;;;5055372;28;20686;-85
2021/11/22 11:32:09;;;;;;;2.53;2.00;;;;;;;;;;5054934;28;20199;-85
2021/11/22 11:34:55;;;;;;;4.37;2.07;;;;;;;;;;5055415;28;20199;-84
2021/11/22 11:37:55;;;;;;;1.90;1.80;;;;;;;;;;5055133;28;20329;-86
2021/11/22 11:40:57;;;;;;;1.93;1.67;;;;;;;;;;5055068;28;20309;-86
2021/11/22 11:43:51;;;;;;;3.37;2.10;;;;;;;;;;5055229;28;20722;-86
2021/11/22 11:46:47;;;;;;;2.75;1.80;;;;;;;;;;5054401;28;20809;-86
2021/11/22 11:49:33;;;;;;;2.17;1.70;;;;;;;;;;5054873;28;20310;-83
2021/11/22 11:52:22;;;;;;;6.97;1.80;;;;;;;;;;5054742;28;20553;-85
2021/11/22 11:55:12;;;;;;;8.50;1.77;;;;;;;;;;5054462;28;20659;-84
2021/11/22 11:58:24;;;;;;;2.67;1.70;;;;;;;;;;5054740;28;20694;-85
2021/11/22 12:01:13;;;;;;;1.73;1.63;;;;;;;;;;5054782;28;20198;-85
2021/11/22 12:04:09;;;;;;;2.07;1.80;;;;;;;;;;5054757;28;20187;-86
2021/11/22 12:06:56;;;;;;;3.27;1.70;;;;;;;;;;5054549;28;20249;-91
2021/11/22 12:09:42;;;;;;;1.87;1.77;;;;;;;;;;5053065;28;20198;-85
2021/11/22 12:12:33;;;;;;;5.13;2.40;;;;;;;;;;5053715;28;20563;-86
2021/11/22 12:15:26;;;;;;;2.37;1.80;;;;;;;;;;5053991;28;20191;-85
2021/11/22 12:18:11;;;;;;;2.30;1.40;;;;;;;;;;5054371;28;20190;-85
2021/11/22 12:20:59;;;;;;;1.83;1.70;;;;;;;;;;5054148;28;20187;-87
2021/11/22 12:23:47;;;;;;;2.03;1.70;;;;;;;;;;5054350;28;20199;-88
2021/11/22 12:26:34;;;;;;;1.60;1.50;;;;;;;;;;5053437;28;20462;-87
2021/11/22 12:29:30;;;;;;;1.93;1.70;;;;;;;;;;5053501;28;20210;-85
2021/11/22 12:32:24;;;;;;;1.80;1.70;;;;;;;;;;5053641;28;20663;-90
2021/11/22 12:35:09;;;;;;;1.80;1.70;;;;;;;;;;5053896;28;20279;-85
2021/11/22 12:38:15;;;;;;;2.00;1.60;;;;;;;;;;5053965;28;20194;-86
2021/11/22 12:41:02;;;;;;;1.40;1.30;;;;;;;;;;5053347;28;20234;-90
2021/11/22 12:43:48;;;;;;;1.63;1.50;;;;;;;;;;5053766;28;20186;-87
2021/11/22 12:46:41;;;;;;;1.97;1.87;;;;;;;;;;5053152;28;20265;-86
2021/11/22 12:49:31;;;;;;;1.87;1.77;;;;;;;;;;5053539;28;20218;-86
2021/11/22 12:52:18;;;;;;;1.70;1.60;;;;;;;;;;5053695;28;20187;-88
2021/11/22 12:55:12;;;;;;;4.77;1.70;;;;;;;;;;5053400;28;20186;-88
2021/11/22 12:58:08;;;;;;;3.10;1.77;;;;;;;;;;5053352;28;20253;-86
2021/11/22 13:00:54;;;;;;;1.33;1.30;;;;;;;;;;5053683;28;20234;-89
2021/11/22 13:03:50;;;;;;;3.80;1.30;;;;;;;;;;5054751;28;20198;-88
2021/11/22 13:06:37;;;;;;;2.73;1.87;;;;;;;;;;5053898;28;20229;-86
2021/11/22 13:09:37;;;;;;;1.43;1.40;;;;;;;;;;5053628;28;20666;-87
2021/11/22 13:12:32;;;;;;;2.83;1.37;;;;;;;;;;5053591;28;20183;-87
2021/11/22 13:15:32;;;;;;;1.40;1.30;;;;;;;;;;5052974;28;20319;-86
2021/11/22 13:18:17;;;;;;;1.60;1.50;;;;;;;;;;5053441;28;20182;-87
2021/11/22 13:21:05;;;;;;;1.60;1.50;;;;;;;;;;5052559;28;20438;-87
2021/11/22 13:23:50;;;;;;;4.23;3.60;;;;;;;;;;5053524;28;20272;-88
2021/11/22 13:26:37;;;;;;;2.20;1.60;;;;;;;;;;5053296;28;20242;-86
2021/11/22 13:29:26;;;;;;;1.57;1.50;;;;;;;;;;5054004;28;20257;-87
2021/11/22 13:32:12;;;;;;;1.60;1.50;;;;;;;;;;5053422;28;20203;-87
2021/11/22 13:34:57;;;;;;;3.30;1.60;;;;;;;;;;5053326;28;20190;-87
2021/11/22 13:37:42;;;;;;;1.27;1.27;;;;;;;;;;5053567;28;20611;-85
2021/11/22 13:40:27;;;;;;;1.13;1.13;;;;;;;;;;5054052;28;20585;-90
2021/11/22 13:43:13;;;;;;;2.40;1.90;;;;;;;;;;5053469;28;20555;-85
2021/11/22 13:46:01;;;;;;;1.47;1.37;;;;;;;;;;5053474;28;20183;-86
2021/11/22 13:48:47;;;;;;;1.37;1.30;;;;;;;;;;5053704;28;20364;-87
2021/11/22 13:51:34;;;;;;;1.27;1.17;;;;;;;;;;5053318;28;20238;-87
2021/11/22 13:54:21;;;;;;;1.47;1.37;;;;;;;;;;5053366;28;20174;-87
2021/11/22 13:57:07;;;;;;;1.17;1.17;;;;;;;;;;5053180;28;20557;-92
2021/11/22 13:59:55;;;;;;;1.30;1.00;;;;;;;;;;5052881;28;20190;-86
2021/11/22 14:02:41;;;;;;;1.00;1.00;;;;;;;;;;5052723;28;20313;-86
2021/11/22 14:05:28;;;;;;;0.93;0.93;;;;;;;;;;5052224;28;20298;-86
2021/11/22 14:08:14;;;;;;;1.53;1.00;;;;;;;;;;5052733;28;20210;-86
2021/11/22 14:10:59;;;;;;;0.90;0.90;;;;;;;;;;5053160;28;20187;-87
2021/11/22 14:13:44;;;;;;;1.03;1.03;;;;;;;;;;5053611;28;20318;-88
2021/11/22 14:16:29;;;;;;;1.73;1.10;;;;;;;;;;5053347;28;20674;-90
2021/11/22 14:19:16;;;;;;;1.10;1.00;;;;;;;;;;5052623;28;20183;-87
2021/11/22 14:22:08;;;;;;;1.00;1.00;;;;;;;;;;5052413;28;20194;-87
2021/11/22 14:24:54;;;;;;;1.17;1.10;;;;;;;;;;5052003;28;20190;-90
2021/11/22 14:27:41;;;;;;;3.13;1.10;;;;;;;;;;5051943;28;20269;-85
2021/11/22 14:30:27;;;;;;;1.00;1.00;;;;;;;;;;5052008;28;20191;-86
2021/11/22 14:33:14;;;;;;;2.30;1.30;;;;;;;;;;5051258;28;20183;-89
2021/11/22 14:36:02;;;;;;;1.00;1.00;;;;;;;;;;5051816;28;20293;-88
2021/11/22 14:38:55;;;;;;;1.53;1.43;;;;;;;;;;5053182;28;20622;-87
2021/11/22 14:41:44;;;;;;;0.87;0.87;;;;;;;;;;5052237;28;20234;-85
2021/11/22 14:44:29;;;;;;;0.93;0.93;;;;;;;;;;5052523;28;20198;-86
2021/11/22 14:47:28;;;;;;;1.40;1.30;;;;;;;;;;5052412;28;20655;-87
2021/11/22 14:50:17;;;;;;;2.20;1.20;;;;;;;;;;5051992;28;20640;-85
2021/11/22 14:53:06;;;;;;;2.17;1.47;;;;;;;;;;5052466;28;20721;-85
2021/11/22 14:56:07;;;;;;;1.80;1.70;;;;;;;;;;5052146;28;20277;-86
2021/11/22 14:58:53;;;;;;;1.70;1.60;;;;;;;;;;5052542;28;20205;-86
2021/11/22 15:01:39;;;;;;;4.10;1.23;;;;;;;;;;5052170;28;20741;-86
2021/11/22 15:04:26;;;;;;;1.30;1.30;;;;;;;;;;5052811;28;20261;-86
2021/11/22 15:07:14;;;;;;;2.00;1.40;;;;;;;;;;5052795;28;20198;-85
2021/11/22 15:10:07;;;;;;;1.70;1.60;;;;;;;;;;5052556;28;20221;-86
2021/11/22 15:12:52;;;;;;;4.30;1.57;;;;;;;;;;5052466;28;20195;-85
2021/11/22 15:15:37;;;;;;;1.63;1.53;;;;;;;;;;5051976;28;20183;-87
2021/11/22 15:18:22;;;;;;;1.97;1.87;;;;;;;;;;5053163;28;20214;-87
2021/11/22 15:21:07;;;;;;;2.57;2.37;;;;;;;;;;5052534;28;20191;-89
2021/11/22 15:23:52;;;;;;;1.20;1.20;;;;;;;;;;5052789;28;20206;-86
2021/11/22 15:26:40;;;;;;;3.37;2.33;;;;;;;;;;5051743;28;20229;-85
2021/11/22 15:29:27;;;;;;;4.37;2.53;;;;;;;;;;5051512;28;20222;-86
2021/11/22 15:32:13;;;;;;;1.60;1.50;;;;;;;;;;5051539;28;20186;-85
2021/11/22 15:34:59;;;;;;;2.50;1.30;;;;;;;;;;5051379;28;20402;-87
2021/11/22 15:37:44;;;;;;;1.27;1.17;;;;;;;;;;5052168;28;20186;-88
2021/11/22 15:40:30;;;;;;;1.43;1.33;;;;;;;;;;5053086;28;20186;-89
2021/11/22 15:43:18;;;;;;;2.23;1.20;;;;;;;;;;5053473;28;20182;-86
2021/11/22 15:46:03;;;;;;;1.13;1.13;;;;;;;;;;5056918;28;20310;-87
2021/11/22 15:48:48;;;;;;;1.47;1.37;;;;;;;;;;5057814;28;20548;-88
2021/11/22 15:51:33;;;;;;;0.90;0.90;;;;;;;;;;5057267;28;20229;-86
2021/11/22 15:54:18;;;;;;;0.70;0.70;;;;;;;;;;5056011;28;20187;-86
2021/11/22 15:57:04;;;;;;;1.00;1.00;;;;;;;;;;5055740;28;20245;-88
2021/11/22 15:59:51;;;;;;;1.60;1.13;;;;;;;;;;5056640;28;20187;-86
2021/11/22 16:02:36;;;;;;;1.03;1.00;;;;;;;;;;5055410;28;20183;-91
2021/11/22 16:05:21;;;;;;;2.47;1.23;;;;;;;;;;5055528;28;20667;-86
2021/11/22 16:08:06;;;;;;;1.87;1.20;;;;;;;;;;5055849;28;20662;-90
2021/11/22 16:10:51;;;;;;;0.93;0.93;;;;;;;;;;5055126;28;20308;-90
2021/11/22 16:13:36;;;;;;;1.30;1.30;;;;;;;;;;5054164;28;20862;-86
2021/11/22 16:16:23;;;;;;;1.73;1.20;;;;;;;;;;5054045;28;20195;-87
2021/11/22 16:19:09;;;;;;;1.10;1.10;;;;;;;;;;5053879;28;20602;-86
2021/11/22 16:21:54;;;;;;;1.20;1.20;;;;;;;;;;5054409;28;20317;-84
2021/11/22 16:24:39;;;;;;;3.13;1.10;;;;;;;;;;5055850;28;20203;-89
2021/11/22 16:27:24;;;;;;;1.50;1.40;;;;;;;;;;5054516;28;20230;-86
2021/11/22 16:30:10;;;;;;;1.10;1.10;;;;;;;;;;5054603;28;20211;-90